Aérodrome :
LOGIN :

S'inscrire | Disclaimer

   EN    FR    IT 

 










Légende :    VFR   VFR Marginal   IFR   IFR Intensif   IFR Très Intensif
Visi : 
Plafond : 
>= 8 km
>= 3000ft
5 à 8 km
1000 à 3000 ft
1500m à 5 km
500 à 1000 ft
800 à 1500m
200 à 500 ft
< 800m
< 200 ft
Symboles :   Orages  Brouillard  Fortes neiges  Fortes précipitations  Vent > 20 kt
SIGMETs :   Divers  Orages  Givrage  Turbulence  Onde Orograph.  Cendres Volcan.






- Altitude de l'aérodrome : 461 ft
- Code IATA : WIE


ETOU - Wiesbaden Army

DERNIER METAR :
  • 091041Z 29003KT 9999 OVC015 03/02 A2973 RMK AO2A SLP076 $

METARs EXPIRÉS :
  • 090956Z 27008KT 9999 BKN014 OVC065 02/02 A2973 RMK AO2A CIG 014V060 SLP077 T00190018 $
  • 090933Z 27008KT 9999 BKN014 BKN049 01/01 A2973 RMK SLP077 $
  • 090921Z 27005KT 9999 SCT008 BKN049 OVC065 01/01 A2973 RMK AO2A SLP077 $
  • 090856Z 28006KT 9999 SCT008 BKN011 01/01 A2972 RMK AO2A OVC V BKN SLP074 T00090008 52016
  • 090851Z 28006KT 9999 SCT008 BKN011 01/01 A2972 RMK AO2A OVC V BKN SLP074 $
  • 090756Z 00000KT 9999 FEW004 FEW011 SCT047 00/00 A2972 RMK AO2A SLP074 T10011002 $

TAF AMD TAF ETOU
Valide du 09 à 09h jusqu'au 10 à 10h UTC


090905Z 0909/1010 24006KT 9999 SCT008 BKN010 QNH2968INS
BECMG 0915/0916 21006KT 9999 BKN010 620406 QNH2965INS
TEMPO 0918/0920 9000 -SHRA
BECMG 1003/1004 17009KT 9999 FEW006 BKN010 QNH2948INS TX07/0913Z TN01/0922Z



MET'MAP, la Météo Aéronautique d'un coup d'oeil ! - Copyright ORBIFLY Décembre 2007 - Disclaimer

ORBIFLY MET'MAP TEAM :

Programmation & Développement : Alexandra Zaïnal
Sur une idée originale de : Baudouin d'Aumeries
Assistance à la programmation : Marc-Olivier Méhu
Soutien technique & logistique : Manuel Goepfert

Contact : metmap@orbifly.com




SOURCES & CREDITS :

   NOAA